createdAt,value
2023-02-05T00:00:08.622Z,102420.69
2023-02-05T00:02:11.885Z,102424.94
2023-02-05T00:04:13.951Z,102421.31
2023-02-05T00:06:16.910Z,102419.19
2023-02-05T00:08:18.908Z,102426.19
2023-02-05T00:10:20.744Z,102424.44
2023-02-05T00:12:22.683Z,102425.78
2023-02-05T00:14:25.293Z,102430.81
2023-02-05T00:16:27.298Z,102424.53
2023-02-05T00:18:29.389Z,102431.44
2023-02-05T00:20:31.438Z,102422.25
2023-02-05T00:22:35.048Z,102427.78
2023-02-05T00:24:37.047Z,102428.81
2023-02-05T00:26:39.101Z,102427.25
2023-02-05T00:28:44.631Z,102424.38
2023-02-05T00:30:49.654Z,102431.38
2023-02-05T00:32:51.680Z,102431.09
2023-02-05T00:34:54.576Z,102431.41
2023-02-05T00:36:56.427Z,102430.53
2023-02-05T00:38:58.398Z,102428.22
2023-02-05T00:41:00.783Z,102429.44
2023-02-05T00:43:04.754Z,102434.97
2023-02-05T00:45:07.208Z,102433.97
2023-02-05T00:47:10.175Z,102431.88
2023-02-05T00:49:12.118Z,102436.13
2023-02-05T00:51:15.096Z,102437.22
2023-02-05T00:53:19.318Z,102444.63
2023-02-05T00:55:21.693Z,102439.81
2023-02-05T00:57:24.921Z,102449.25
2023-02-05T00:59:26.840Z,102443.41
2023-02-05T01:01:32.739Z,102449.84
2023-02-05T01:03:34.813Z,102450.69
2023-02-05T01:05:38.067Z,102447.38
2023-02-05T01:07:40.149Z,102442.22
2023-02-05T01:09:43.118Z,102440.59
2023-02-05T01:11:45.025Z,102438.75
2023-02-05T01:13:48.968Z,102439.75
2023-02-05T01:15:50.982Z,102436.25
2023-02-05T01:17:53.191Z,102427.19
2023-02-05T01:19:55.147Z,102430.78
2023-02-05T01:21:57.988Z,102428.84
2023-02-05T01:24:01.766Z,102433.88
2023-02-05T01:26:03.648Z,102432.38
2023-02-05T01:28:07.180Z,102434.25
2023-02-05T01:30:12.027Z,102441.16
2023-02-05T01:32:15.273Z,102437.22
2023-02-05T01:34:18.252Z,102437.88
2023-02-05T01:36:20.152Z,102435.94
2023-02-05T01:38:24.160Z,102433.84
2023-02-05T01:40:26.140Z,102430.59
2023-02-05T01:42:31.954Z,102435.28
2023-02-05T01:44:33.781Z,102426.41
2023-02-05T01:46:38.636Z,102431.56
2023-02-05T01:48:44.401Z,102421.47
2023-02-05T01:50:51.509Z,102423.47
2023-02-05T01:52:54.976Z,102423.47
2023-02-05T01:54:58.892Z,102426.41
2023-02-05T01:57:06.614Z,102427.19
2023-02-05T01:59:24.657Z,102421.38
2023-02-05T02:01:27.950Z,102424.13
2023-02-05T02:03:31.859Z,102427.06
2023-02-05T02:05:34.205Z,102429.38
2023-02-05T02:07:38.342Z,102428.81
2023-02-05T02:09:42.336Z,102418.84
2023-02-05T02:11:45.100Z,102416.00
2023-02-05T02:13:49.111Z,102422.69
2023-02-05T02:15:52.386Z,102424.75
2023-02-05T02:18:19.824Z,102429.03
2023-02-05T02:20:26.349Z,102433.53
2023-02-05T02:22:55.203Z,102424.53
2023-02-05T02:25:02.675Z,102424.75
2023-02-05T02:27:40.024Z,102431.56
2023-02-05T02:29:57.489Z,102425.22
2023-02-05T02:32:13.289Z,102429.25
2023-02-05T02:34:25.232Z,102437.38
2023-02-05T02:36:49.778Z,102433.53
2023-02-05T02:39:03.266Z,102432.22
2023-02-05T02:41:13.421Z,102439.00
2023-02-05T02:43:58.705Z,102434.16
2023-02-05T02:46:05.765Z,102438.66
2023-02-05T02:48:08.834Z,102437.56
2023-02-05T02:50:17.581Z,102437.75
2023-02-05T02:52:22.645Z,102435.25
2023-02-05T02:54:27.146Z,102440.53
2023-02-05T02:56:32.728Z,102431.31
2023-02-05T02:58:48.916Z,102440.75
2023-02-05T03:00:53.820Z,102446.88
2023-02-05T03:03:03.474Z,102446.88
2023-02-05T03:05:13.077Z,102452.97
2023-02-05T03:07:31.754Z,102458.47
2023-02-05T03:09:52.990Z,102458.47
2023-02-05T03:11:55.056Z,102450.38
2023-02-05T03:13:57.654Z,102447.06
2023-02-05T03:16:00.727Z,102451.25
2023-02-05T03:18:02.738Z,102452.78
2023-02-05T03:20:07.510Z,102450.03
2023-02-05T03:22:09.436Z,102452.56
2023-02-05T03:24:13.307Z,102442.69
2023-02-05T03:26:31.164Z,102439.22
2023-02-05T03:28:38.962Z,102435.25
2023-02-05T03:31:09.818Z,102437.63
2023-02-05T03:33:21.572Z,102438.31
2023-02-05T03:35:39.826Z,102437.63
2023-02-05T03:38:20.550Z,102433.25
2023-02-05T03:40:30.706Z,102439.88
2023-02-05T03:42:57.776Z,102442.28
2023-02-05T03:45:08.681Z,102433.91
2023-02-05T03:47:32.489Z,102448.84
2023-02-05T03:49:46.337Z,102445.56
2023-02-05T03:52:07.406Z,102439.75
2023-02-05T03:54:28.786Z,102442.28
2023-02-05T03:56:43.738Z,102436.34
2023-02-05T03:58:56.155Z,102443.34
2023-02-05T04:00:58.823Z,102444.66
2023-02-05T04:03:00.827Z,102445.56
2023-02-05T04:05:03.042Z,102443.81
2023-02-05T04:07:04.960Z,102443.06
2023-02-05T04:09:07.307Z,102446.53
2023-02-05T04:11:10.072Z,102437.44
2023-02-05T04:13:13.821Z,102445.34
2023-02-05T04:15:15.865Z,102443.13
2023-02-05T04:17:17.715Z,102442.72
2023-02-05T04:19:19.718Z,102442.06
2023-02-05T04:21:21.915Z,102447.75
2023-02-05T04:23:23.873Z,102449.84
2023-02-05T04:25:26.883Z,102443.81
2023-02-05T04:27:28.848Z,102440.28
2023-02-05T04:29:30.862Z,102444.91
2023-02-05T04:31:32.759Z,102454.22
2023-02-05T04:33:34.803Z,102455.09
2023-02-05T04:35:38.703Z,102455.75
2023-02-05T04:37:40.669Z,102458.47
2023-02-05T04:39:43.569Z,102456.75
2023-02-05T04:41:45.438Z,102460.13
2023-02-05T04:43:48.379Z,102459.38
2023-02-05T04:45:50.352Z,102455.88
2023-02-05T04:47:52.333Z,102465.97
2023-02-05T04:49:54.197Z,102467.50
2023-02-05T04:51:56.058Z,102467.91
2023-02-05T04:53:57.942Z,102471.66
2023-02-05T04:56:09.866Z,102466.63
2023-02-05T04:58:11.798Z,102472.75
2023-02-05T05:00:14.395Z,102465.97
2023-02-05T05:02:17.063Z,102463.22
2023-02-05T05:04:19.059Z,102472.66
2023-02-05T05:06:21.431Z,102469.03
2023-02-05T05:08:23.341Z,102469.03
2023-02-05T05:10:25.440Z,102470.78
2023-02-05T05:12:27.272Z,102471.53
2023-02-05T05:14:35.073Z,102468.03
2023-02-05T05:16:36.952Z,102467.38
2023-02-05T05:18:40.106Z,102468.03
2023-02-05T05:20:42.747Z,102473.41
2023-02-05T05:22:44.680Z,102471.75
2023-02-05T05:24:46.708Z,102468.16
2023-02-05T05:26:48.662Z,102475.59
2023-02-05T05:28:55.775Z,102479.69
2023-02-05T05:30:57.744Z,102477.38
2023-02-05T05:33:10.862Z,102476.50
2023-02-05T05:35:12.674Z,102483.16
2023-02-05T05:37:14.656Z,102475.38
2023-02-05T05:39:37.243Z,102480.34
2023-02-05T05:41:57.479Z,102476.38
2023-02-05T05:43:59.277Z,102471.34
2023-02-05T05:46:01.873Z,102465.88
2023-02-05T05:48:04.666Z,102464.31
2023-02-05T05:50:07.095Z,102470.34
2023-02-05T05:52:08.968Z,102479.31
2023-02-05T05:54:11.887Z,102474.94
2023-02-05T05:56:15.614Z,102487.47
2023-02-05T05:58:17.652Z,102498.19
2023-02-05T06:00:20.800Z,102489.41
2023-02-05T06:02:22.711Z,102492.94
2023-02-05T06:04:24.704Z,102500.41
2023-02-05T06:06:26.605Z,102505.44
2023-02-05T06:08:28.720Z,102505.66
2023-02-05T06:10:30.875Z,102509.84
2023-02-05T06:12:32.805Z,102503.34
2023-02-05T06:14:34.857Z,102503.88
2023-02-05T06:16:37.774Z,102505.75
2023-02-05T06:18:40.605Z,102505.00
2023-02-05T06:20:42.494Z,102507.19
2023-02-05T06:22:44.719Z,102516.72
2023-02-05T06:24:46.593Z,102515.53
2023-02-05T06:26:48.456Z,102522.44
2023-02-05T06:28:50.365Z,102528.66
2023-02-05T06:30:53.381Z,102522.53
2023-02-05T06:32:55.425Z,102526.72
2023-02-05T06:34:57.301Z,102530.66
2023-02-05T06:36:59.198Z,102525.81
2023-02-05T06:39:01.023Z,102520.22
2023-02-05T06:41:03.000Z,102533.50
2023-02-05T06:43:04.989Z,102537.03
2023-02-05T06:45:07.519Z,102531.97
2023-02-05T06:47:10.413Z,102532.84
2023-02-05T06:49:14.330Z,102530.41
2023-02-05T06:51:18.264Z,102534.72
2023-02-05T06:53:20.274Z,102536.78
2023-02-05T06:55:22.234Z,102540.31
2023-02-05T06:57:24.106Z,102542.91
2023-02-05T06:59:26.172Z,102548.84
2023-02-05T07:01:28.177Z,102540.72
2023-02-05T07:03:30.290Z,102538.75
2023-02-05T07:05:34.989Z,102541.72
2023-02-05T07:07:38.139Z,102542.47
2023-02-05T07:09:40.018Z,102547.97
2023-02-05T07:11:41.984Z,102547.31
2023-02-05T07:13:44.878Z,102558.94
2023-02-05T07:15:47.652Z,102553.44
2023-02-05T07:17:50.444Z,102563.53
2023-02-05T07:19:52.470Z,102563.75
2023-02-05T07:21:55.285Z,102566.19
2023-02-05T07:23:57.146Z,102567.47
2023-02-05T07:25:59.339Z,102560.00
2023-02-05T07:28:01.278Z,102567.00
2023-02-05T07:30:03.334Z,102558.34
2023-02-05T07:32:05.486Z,102563.16
2023-02-05T07:34:07.413Z,102556.22
2023-02-05T07:36:12.003Z,102563.47
2023-02-05T07:38:14.376Z,102564.25
2023-02-05T07:40:17.497Z,102568.72
2023-02-05T07:42:22.709Z,102568.41
2023-02-05T07:44:27.018Z,102573.19
2023-02-05T07:46:29.178Z,102571.31
2023-02-05T07:48:31.852Z,102574.69
2023-02-05T07:50:34.080Z,102565.59
2023-02-05T07:52:35.962Z,102568.78
2023-02-05T07:54:38.841Z,102568.66
2023-02-05T07:56:40.870Z,102571.41
2023-02-05T07:58:43.619Z,102569.72
2023-02-05T08:00:45.880Z,102571.81
2023-02-05T08:02:54.877Z,102568.44
2023-02-05T08:04:58.862Z,102571.69
2023-02-05T08:07:00.904Z,102571.47
2023-02-05T08:09:02.833Z,102575.06
2023-02-05T08:11:06.792Z,102577.34
2023-02-05T08:13:08.688Z,102578.91
2023-02-05T08:15:11.228Z,102593.53
2023-02-05T08:17:14.198Z,102589.78
2023-02-05T08:19:18.053Z,102592.13
2023-02-05T08:21:22.056Z,102593.69
2023-02-05T08:23:24.217Z,102593.69
2023-02-05T08:25:26.196Z,102598.06
2023-02-05T08:27:30.139Z,102605.19
2023-02-05T08:29:32.338Z,102612.28
2023-02-05T08:31:35.704Z,102610.25
2023-02-05T08:33:40.095Z,102612.28
2023-02-05T08:35:42.076Z,102610.75
2023-02-05T08:37:45.116Z,102619.13
2023-02-05T08:39:47.038Z,102611.56
2023-02-05T08:41:49.983Z,102616.03
2023-02-05T08:43:51.968Z,102616.81
2023-02-05T08:45:53.899Z,102620.41
2023-02-05T08:47:57.463Z,102618.00
2023-02-05T08:50:00.286Z,102620.53
2023-02-05T08:52:02.994Z,102622.69
2023-02-05T08:54:09.424Z,102621.09
2023-02-05T08:56:14.211Z,102631.22
2023-02-05T08:58:16.131Z,102634.34
2023-02-05T09:00:18.438Z,102633.56
2023-02-05T09:02:20.339Z,102642.16
2023-02-05T09:04:23.706Z,102641.16
2023-02-05T09:06:25.836Z,102641.66
2023-02-05T09:08:31.112Z,102648.50
2023-02-05T09:10:33.214Z,102656.19
2023-02-05T09:12:36.229Z,102661.44
2023-02-05T09:14:39.548Z,102661.44
2023-02-05T09:16:44.523Z,102665.13
2023-02-05T09:18:47.423Z,102669.63
2023-02-05T09:20:50.683Z,102674.72
2023-02-05T09:22:54.285Z,102673.34
2023-02-05T09:24:57.189Z,102671.97
2023-02-05T09:26:59.482Z,102662.72
2023-02-05T09:29:02.487Z,102683.66
2023-02-05T09:31:15.611Z,102687.56
2023-02-05T09:33:18.314Z,102692.34
2023-02-05T09:35:21.419Z,102684.84
2023-02-05T09:37:23.341Z,102690.38
2023-02-05T09:39:56.072Z,102687.09
2023-02-05T09:42:05.998Z,102692.63
2023-02-05T09:44:41.038Z,102682.78
2023-02-05T09:47:01.388Z,102681.81
2023-02-05T09:49:19.041Z,102672.66
2023-02-05T09:51:26.011Z,102672.59
2023-02-05T09:53:35.612Z,102673.34
2023-02-05T09:55:40.319Z,102665.94
2023-02-05T09:57:44.848Z,102661.53
2023-02-05T09:59:47.819Z,102661.47
2023-02-05T10:02:13.164Z,102668.28
2023-02-05T10:04:15.425Z,102661.47
2023-02-05T10:06:21.513Z,102664.00
2023-02-05T10:08:36.264Z,102669.25
2023-02-05T10:10:49.382Z,102669.75
2023-02-05T10:12:59.794Z,102670.81
2023-02-05T10:15:09.431Z,102668.09
2023-02-05T10:17:37.886Z,102674.69
2023-02-05T10:19:42.742Z,102663.81
2023-02-05T10:21:55.521Z,102671.41
2023-02-05T10:24:26.933Z,102668.06
2023-02-05T10:26:53.312Z,102671.59
2023-02-05T10:29:11.572Z,102676.66
2023-02-05T10:31:32.175Z,102668.06
2023-02-05T10:33:44.888Z,102663.97
2023-02-05T10:36:06.875Z,102657.94
2023-02-05T10:38:21.209Z,102660.75
2023-02-05T10:40:30.878Z,102661.75
2023-02-05T10:42:39.839Z,102656.00
2023-02-05T10:44:49.457Z,102661.44
2023-02-05T10:46:57.069Z,102651.47
2023-02-05T10:49:08.345Z,102649.50
2023-02-05T10:51:15.943Z,102646.19
2023-02-05T10:53:21.615Z,102649.59
2023-02-05T10:55:29.642Z,102644.94
2023-02-05T10:57:35.798Z,102631.66
2023-02-05T10:59:58.756Z,102633.66
2023-02-05T11:02:10.049Z,102631.59
2023-02-05T11:04:29.933Z,102628.47
2023-02-05T11:06:37.608Z,102635.09
2023-02-05T11:08:44.092Z,102626.13
2023-02-05T11:10:53.455Z,102624.97
2023-02-05T11:12:58.871Z,102627.72
2023-02-05T11:15:20.426Z,102631.00
2023-02-05T11:17:35.282Z,102616.59
2023-02-05T11:19:38.340Z,102619.72
2023-02-05T11:21:56.832Z,102619.13
2023-02-05T11:24:00.691Z,102621.84
2023-02-05T11:26:09.116Z,102611.38
2023-02-05T11:28:21.117Z,102615.13
2023-02-05T11:30:56.042Z,102615.47
2023-02-05T11:32:58.413Z,102618.91
2023-02-05T11:35:21.017Z,102625.38
2023-02-05T11:37:24.058Z,102622.97
2023-02-05T11:39:40.093Z,102627.47
2023-02-05T11:41:56.619Z,102632.53
2023-02-05T11:44:03.336Z,102627.66
2023-02-05T11:46:10.233Z,102625.72
2023-02-05T11:48:40.496Z,102617.16
2023-02-05T11:50:44.459Z,102614.59
2023-02-05T11:52:46.434Z,102616.16
2023-02-05T11:54:51.874Z,102621.63
2023-02-05T11:57:20.284Z,102620.66
2023-02-05T11:59:23.008Z,102615.28
2023-02-05T12:01:25.986Z,102612.03
2023-02-05T12:03:35.470Z,102622.00
2023-02-05T12:06:16.750Z,102621.63
2023-02-05T12:08:27.612Z,102610.00
2023-02-05T12:11:02.097Z,102609.13
2023-02-05T12:13:09.794Z,102605.13
2023-02-05T12:15:17.666Z,102607.56
2023-02-05T12:17:31.547Z,102611.78
2023-02-05T12:19:48.402Z,102604.72
2023-02-05T12:21:50.573Z,102607.66
2023-02-05T12:24:10.467Z,102606.72
2023-02-05T12:26:41.711Z,102609.38
2023-02-05T12:28:43.697Z,102599.69
2023-02-05T12:31:17.957Z,102602.34
2023-02-05T12:33:54.828Z,102606.22
2023-02-05T12:36:34.663Z,102604.41
2023-02-05T12:38:56.617Z,102601.59
2023-02-05T12:41:46.041Z,102606.81
2023-02-05T12:43:50.674Z,102606.41
2023-02-05T12:46:06.420Z,102601.75
2023-02-05T12:48:48.423Z,102599.41
2023-02-05T12:51:15.386Z,102608.16
2023-02-05T12:53:17.746Z,102605.81
2023-02-05T12:55:49.322Z,102611.50
2023-02-05T12:57:59.780Z,102606.25
2023-02-05T13:00:12.628Z,102601.75
2023-02-05T13:02:59.372Z,102598.03
2023-02-05T13:05:22.197Z,102601.81
2023-02-05T13:07:42.652Z,102597.50
2023-02-05T13:10:00.901Z,102595.06
2023-02-05T13:12:12.167Z,102597.00
2023-02-05T13:14:23.660Z,102597.69
2023-02-05T13:16:41.883Z,102602.06
2023-02-05T13:18:50.753Z,102602.69
2023-02-05T13:21:24.172Z,102599.69
2023-02-05T13:23:47.842Z,102607.00
2023-02-05T13:26:09.114Z,102607.63
2023-02-05T13:28:40.360Z,102595.63
2023-02-05T13:30:46.908Z,102604.47
2023-02-05T13:32:53.686Z,102616.09
2023-02-05T13:34:59.796Z,102612.59
2023-02-05T13:37:59.224Z,102611.31
2023-02-05T13:40:36.840Z,102609.53
2023-02-05T13:43:18.364Z,102612.25
2023-02-05T13:45:28.848Z,102617.16
2023-02-05T13:47:52.449Z,102597.56
2023-02-05T13:50:28.551Z,102602.34
2023-02-05T13:52:54.626Z,102607.41
2023-02-05T13:55:22.708Z,102611.88
2023-02-05T13:57:52.557Z,102603.41
2023-02-05T13:59:56.234Z,102614.06
2023-02-05T14:02:01.997Z,102613.78
2023-02-05T14:04:17.387Z,102607.84
2023-02-05T14:06:30.245Z,102604.50
2023-02-05T14:09:56.855Z,102616.81
2023-02-05T14:12:03.642Z,102610.94
2023-02-05T14:14:18.962Z,102612.31
2023-02-05T14:16:25.406Z,102610.59
2023-02-05T14:18:40.188Z,102603.75
2023-02-05T14:20:46.276Z,102604.06
2023-02-05T14:22:50.406Z,102607.06
2023-02-05T14:24:52.943Z,102608.44
2023-02-05T14:27:00.889Z,102608.94
2023-02-05T14:29:04.104Z,102614.09
2023-02-05T14:31:07.933Z,102611.38
2023-02-05T14:33:33.936Z,102617.31
2023-02-05T14:35:40.941Z,102616.44
2023-02-05T14:37:46.317Z,102621.13
2023-02-05T14:39:48.669Z,102617.81
2023-02-05T14:41:59.433Z,102623.38
2023-02-05T14:44:16.512Z,102622.00
2023-02-05T14:46:43.361Z,102627.56
2023-02-05T14:48:49.069Z,102627.38
2023-02-05T14:51:32.504Z,102625.81
2023-02-05T14:53:37.460Z,102637.31
2023-02-05T14:55:44.334Z,102645.78
2023-02-05T14:57:48.628Z,102651.53
2023-02-05T14:59:55.657Z,102652.09
2023-02-05T15:02:00.400Z,102654.75
2023-02-05T15:04:05.843Z,102663.03
2023-02-05T15:06:19.033Z,102655.44
2023-02-05T15:08:37.986Z,102654.75
2023-02-05T15:11:09.332Z,102655.44
2023-02-05T15:13:19.080Z,102658.34
2023-02-05T15:15:33.466Z,102662.41
2023-02-05T15:17:44.996Z,102661.06
2023-02-05T15:19:53.344Z,102655.50
2023-02-05T15:21:57.824Z,102653.75
2023-02-05T15:24:22.504Z,102663.03
2023-02-05T15:26:38.223Z,102669.63
2023-02-05T15:28:49.596Z,102667.19
2023-02-05T15:31:02.976Z,102667.88
2023-02-05T15:33:21.918Z,102667.78
2023-02-05T15:35:29.865Z,102666.72
2023-02-05T15:37:40.891Z,102666.78
2023-02-05T15:39:59.218Z,102663.94
2023-02-05T15:42:06.004Z,102669.91
2023-02-05T15:44:21.308Z,102668.44
2023-02-05T15:46:24.346Z,102669.00
2023-02-05T15:48:30.072Z,102674.69
2023-02-05T15:50:34.564Z,102671.28
2023-02-05T15:52:38.627Z,102670.66
2023-02-05T15:54:41.505Z,102676.59
2023-02-05T15:56:44.961Z,102674.53
2023-02-05T15:59:04.442Z,102673.00
2023-02-05T16:01:08.333Z,102673.28
2023-02-05T16:03:26.744Z,102680.91
2023-02-05T16:05:34.195Z,102676.78
2023-02-05T16:07:44.386Z,102678.53
2023-02-05T16:09:54.054Z,102671.28
2023-02-05T16:11:57.349Z,102677.47
2023-02-05T16:14:04.151Z,102684.09
2023-02-05T16:16:12.714Z,102680.84
2023-02-05T16:18:26.755Z,102678.88
2023-02-05T16:20:34.381Z,102691.31
2023-02-05T16:22:45.949Z,102692.34
2023-02-05T16:24:53.256Z,102696.94
2023-02-05T16:27:10.036Z,102694.41
2023-02-05T16:29:25.831Z,102701.97
2023-02-05T16:31:34.816Z,102693.19
2023-02-05T16:33:41.377Z,102692.34
2023-02-05T16:35:49.217Z,102695.19
2023-02-05T16:37:52.476Z,102700.00
2023-02-05T16:39:57.753Z,102704.66
2023-02-05T16:42:28.324Z,102699.59
2023-02-05T16:44:40.447Z,102700.56
2023-02-05T16:46:44.785Z,102708.16
2023-02-05T16:48:54.212Z,102709.69
2023-02-05T16:50:59.452Z,102711.56
2023-02-05T16:53:04.107Z,102711.44
2023-02-05T16:55:28.601Z,102717.16
2023-02-05T16:57:35.061Z,102706.38
2023-02-05T17:00:19.541Z,102711.44
2023-02-05T17:02:31.368Z,102709.69
2023-02-05T17:04:39.627Z,102721.53
2023-02-05T17:06:42.374Z,102715.22
2023-02-05T17:08:53.248Z,102708.28
2023-02-05T17:10:59.174Z,102709.06
2023-02-05T17:13:05.962Z,102708.94
2023-02-05T17:15:16.668Z,102706.31
2023-02-05T17:17:20.106Z,102711.94
2023-02-05T17:19:32.790Z,102708.81
2023-02-05T17:21:36.842Z,102711.47
2023-02-05T17:23:49.784Z,102709.72
2023-02-05T17:25:56.829Z,102718.63
2023-02-05T17:27:59.882Z,102711.72
2023-02-05T17:30:03.289Z,102716.22
2023-02-05T17:32:07.871Z,102717.88
2023-02-05T17:34:11.392Z,102719.75
2023-02-05T17:36:18.294Z,102720.72
2023-02-05T17:38:24.658Z,102724.00
2023-02-05T17:40:34.132Z,102731.06
2023-02-05T17:42:37.607Z,102734.44
2023-02-05T17:44:40.780Z,102738.72
2023-02-05T17:46:49.015Z,102735.03
2023-02-05T17:48:51.980Z,102734.56
2023-02-05T17:51:00.654Z,102735.75
2023-02-05T17:53:04.669Z,102735.97
2023-02-05T17:55:10.446Z,102735.03
2023-02-05T17:57:17.476Z,102742.03
2023-02-05T17:59:25.063Z,102739.53
2023-02-05T18:01:30.165Z,102742.69
2023-02-05T18:03:32.794Z,102736.66
2023-02-05T18:05:35.905Z,102743.91
2023-02-05T18:07:49.417Z,102748.16
2023-02-05T18:09:53.300Z,102749.72
2023-02-05T18:11:57.492Z,102755.53
2023-02-05T18:14:00.451Z,102749.59
2023-02-05T18:16:05.101Z,102751.91
2023-02-05T18:18:08.007Z,102750.16
2023-02-05T18:20:12.268Z,102760.56
2023-02-05T18:22:15.192Z,102756.09
2023-02-05T18:24:23.115Z,102762.66
2023-02-05T18:26:27.929Z,102750.16
2023-02-05T18:28:31.724Z,102751.00
2023-02-05T18:30:34.964Z,102745.28
2023-02-05T18:32:42.171Z,102750.53
2023-02-05T18:34:45.269Z,102739.78
2023-02-05T18:36:51.060Z,102744.53
2023-02-05T18:38:57.304Z,102750.44
2023-02-05T18:41:10.487Z,102737.47
2023-02-05T18:43:13.888Z,102736.13
2023-02-05T18:45:16.960Z,102744.44
2023-02-05T18:47:19.909Z,102744.44
2023-02-05T18:49:25.043Z,102745.72
2023-02-05T18:51:28.289Z,102751.41
2023-02-05T18:53:31.322Z,102742.19
2023-02-05T18:55:36.161Z,102747.28
2023-02-05T18:57:38.861Z,102746.06
2023-02-05T18:59:44.446Z,102746.69
2023-02-05T19:01:47.363Z,102758.97
2023-02-05T19:03:54.986Z,102760.78
2023-02-05T19:05:57.842Z,102751.25
2023-02-05T19:08:00.640Z,102756.84
2023-02-05T19:10:03.338Z,102753.06
2023-02-05T19:12:06.322Z,102753.34
2023-02-05T19:14:15.986Z,102752.94
2023-02-05T19:16:19.978Z,102759.72
2023-02-05T19:18:22.840Z,102756.38
2023-02-05T19:20:25.932Z,102759.72
2023-02-05T19:22:28.923Z,102753.56
2023-02-05T19:24:31.798Z,102753.72
2023-02-05T19:26:38.114Z,102751.66
2023-02-05T19:28:43.858Z,102755.13
2023-02-05T19:30:46.978Z,102744.84
2023-02-05T19:32:50.988Z,102750.63
2023-02-05T19:34:57.013Z,102747.59
2023-02-05T19:36:59.829Z,102750.91
2023-02-05T19:39:12.935Z,102750.66
2023-02-05T19:41:25.860Z,102751.91
2023-02-05T19:43:28.750Z,102767.63
2023-02-05T19:45:31.761Z,102767.25
2023-02-05T19:47:34.753Z,102767.50
2023-02-05T19:49:39.895Z,102774.34
2023-02-05T19:51:52.568Z,102773.56
2023-02-05T19:54:03.722Z,102779.84
2023-02-05T19:56:11.272Z,102770.72
2023-02-05T19:58:14.324Z,102773.94
2023-02-05T20:00:17.654Z,102777.25
2023-02-05T20:02:25.183Z,102773.84
2023-02-05T20:04:30.774Z,102773.31
2023-02-05T20:06:36.405Z,102790.69
2023-02-05T20:08:39.566Z,102789.31
2023-02-05T20:10:41.867Z,102784.63
2023-02-05T20:12:44.841Z,102781.50
2023-02-05T20:14:48.462Z,102788.28
2023-02-05T20:16:53.097Z,102789.31
2023-02-05T20:19:00.330Z,102788.41
2023-02-05T20:21:16.544Z,102794.91
2023-02-05T20:23:21.435Z,102805.63
2023-02-05T20:25:25.079Z,102811.31
2023-02-05T20:27:31.124Z,102806.47
2023-02-05T20:30:06.284Z,102805.47
2023-02-05T20:32:10.957Z,102804.22
2023-02-05T20:34:22.885Z,102794.91
2023-02-05T20:36:34.494Z,102801.66
2023-02-05T20:38:37.280Z,102803.06
2023-02-05T20:40:40.244Z,102806.03
2023-02-05T20:42:43.842Z,102817.16
2023-02-05T20:44:46.782Z,102819.91
2023-02-05T20:46:50.951Z,102817.84
2023-02-05T20:48:54.021Z,102823.78
2023-02-05T20:51:04.667Z,102829.13
2023-02-05T20:53:08.783Z,102834.56
2023-02-05T20:55:11.524Z,102828.34
2023-02-05T20:57:15.833Z,102835.47
2023-02-05T20:59:18.484Z,102848.47
2023-02-05T21:01:26.299Z,102846.31
2023-02-05T21:03:30.944Z,102834.91
2023-02-05T21:05:34.639Z,102833.91
2023-02-05T21:07:37.147Z,102835.06
2023-02-05T21:09:40.840Z,102836.16
2023-02-05T21:11:44.146Z,102832.94
2023-02-05T21:13:48.770Z,102827.28
2023-02-05T21:15:55.743Z,102831.44
2023-02-05T21:17:58.017Z,102831.63
2023-02-05T21:20:00.117Z,102829.59
2023-02-05T21:22:03.753Z,102835.31
2023-02-05T21:24:12.694Z,102838.41
2023-02-05T21:26:25.358Z,102849.50
2023-02-05T21:28:30.316Z,102847.84
2023-02-05T21:30:32.727Z,102857.69
2023-02-05T21:32:35.161Z,102855.72
2023-02-05T21:34:37.181Z,102853.06
2023-02-05T21:36:40.765Z,102859.59
2023-02-05T21:38:43.010Z,102868.78
2023-02-05T21:40:45.195Z,102868.94
2023-02-05T21:42:47.572Z,102872.69
2023-02-05T21:44:53.885Z,102869.66
2023-02-05T21:47:09.028Z,102873.25
2023-02-05T21:49:11.928Z,102874.59
2023-02-05T21:51:18.271Z,102867.38
2023-02-05T21:53:22.203Z,102876.25
2023-02-05T21:55:24.407Z,102877.41
2023-02-05T21:57:28.467Z,102879.00
2023-02-05T21:59:30.452Z,102888.78
2023-02-05T22:01:35.126Z,102881.28
2023-02-05T22:03:38.131Z,102891.53
2023-02-05T22:05:40.198Z,102885.22
2023-02-05T22:07:42.214Z,102885.91
2023-02-05T22:09:44.286Z,102897.16
2023-02-05T22:11:52.233Z,102892.81
2023-02-05T22:13:56.651Z,102885.59
2023-02-05T22:16:03.554Z,102889.22
2023-02-05T22:18:05.482Z,102892.47
2023-02-05T22:20:13.401Z,102888.09
2023-02-05T22:22:15.402Z,102891.34
2023-02-05T22:24:25.463Z,102893.94
2023-02-05T22:26:31.316Z,102895.69
2023-02-05T22:28:37.178Z,102892.44
2023-02-05T22:30:41.098Z,102898.44
2023-02-05T22:32:44.020Z,102902.28
2023-02-05T22:34:46.019Z,102900.75
2023-02-05T22:37:02.515Z,102897.25
2023-02-05T22:39:39.844Z,102894.03
2023-02-05T22:41:43.070Z,102898.03
2023-02-05T22:43:54.465Z,102891.44
2023-02-05T22:48:11.970Z,102880.94
2023-02-05T22:50:16.144Z,102883.38
2023-02-05T22:52:18.092Z,102882.59
2023-02-05T22:54:20.975Z,102882.09
2023-02-05T22:56:23.560Z,102880.94
2023-02-05T22:58:25.441Z,102874.13
2023-02-05T23:00:29.812Z,102883.38
2023-02-05T23:02:32.680Z,102878.00
2023-02-05T23:04:34.738Z,102885.31
2023-02-05T23:06:42.090Z,102884.63
2023-02-05T23:08:48.750Z,102886.88
2023-02-05T23:10:51.678Z,102891.72
2023-02-05T23:12:53.685Z,102889.97
2023-02-05T23:14:55.614Z,102881.59
2023-02-05T23:16:59.317Z,102889.22
2023-02-05T23:19:12.665Z,102888.44
2023-02-05T23:21:17.822Z,102893.16
2023-02-05T23:23:25.559Z,102892.34
2023-02-05T23:25:36.897Z,102894.44
2023-02-05T23:27:41.696Z,102880.94
2023-02-05T23:29:43.671Z,102881.88
2023-02-05T23:31:49.661Z,102887.41
2023-02-05T23:33:53.892Z,102879.72
2023-02-05T23:36:01.379Z,102887.81
2023-02-05T23:38:04.300Z,102888.28
2023-02-05T23:40:33.118Z,102891.38
2023-02-05T23:42:36.102Z,102896.94
2023-02-05T23:44:39.116Z,102892.34
2023-02-05T23:46:44.024Z,102890.09
2023-02-05T23:48:47.967Z,102886.00
2023-02-05T23:50:59.306Z,102879.38
2023-02-05T23:53:03.902Z,102873.81
2023-02-05T23:55:15.919Z,102866.44
2023-02-05T23:57:19.893Z,102865.50
2023-02-05T23:59:32.158Z,102870.16
